Hartsville, Indiana
Current Conditions -  °F | °C
As of 8:53 AM on Thursday 27 Nov 2014 (Local Time) from KGEZ Reporting Station
Overcast Overcast  
Wind Chill: 20°   Ceiling: 5000
Heat Index: 29°   Visibility: 7mi
Dew Point: 21°   Wind: 9mph
Humidity: 72%   Direction: 280°W
Pressure: 30.26"   Gusts: NA
Location:  39.27°N, 85.7°W
Report Text: KGEZ 271353Z AUTO 28008KT 7SM OVC050 M02/M06 A3026 RMK AO2 SLP257 T10171061
Loading
Personal Weather Stations






























Interactive Weather Map New forecast layout! Learn more

10-Day Weather Forecast

Advertisements
Track Severe Weather on mobile